Mount Olive, North Carolina
Current Conditions -  °F | °C
As of 9:58 AM on Friday 24 Oct 2014 (Local Time) from KGSB Reporting Station
Clear Clear  
Wind Chill: 55°   Ceiling: Unl
Heat Index: 55°   Visibility: 10mi
Dew Point: 49°   Wind: 3mph
Humidity: 83%   Direction: 320°NW
Pressure: 30.05"   Gusts: NA
Location:  35.2°N, 78.07°W
Report Text: KGSB 241358Z AUTO 32003KT 10SM CLR 13/10 A3005 RMK AO2 SLP179 T01250096 $
Loading
Personal Weather Stations






























Interactive Weather Map
Tropical Storm Tracking
New forecast layout! Learn more

10-Day Weather Forecast

Advertisements
Track Severe Weather on mobile